Tiempo atmosférico en la estación meteorológica de Llorac, Tarragona (660 m.)



Fecha
DESCASC
Temp. máxima en grados centígrados (hora)
DESCASC
Temp. mínima en grados centígrados (hora)
DESCASC
Temp. media en grados centígrados
DESCASC
Racha de viento máxima en m/sg (hora)
DESCASC
Velocidad máxima media en intervalos de 10 minutos(hora)
DESCASC
Precipitaciones diarias en mm
DESCASC
Precipitaciones de 00:00 a 06:00 en mm
DESCASC
Precipitaciones de 06:00 a 12:00 en mm
DESCASC
Precipitaciones de 12:00 a 18:00 en mm
DESCASC
Precipitaciones de 18:00 a 24:00 en mm
DESCASC
05-04-2020 15 (14:50) -2.4 (07:40) 6.3 8.33 (12:20) 5 (12:40) 0 0 0 0 0
04-04-2020 15.2 (15:20) -1.1 (07:20) 7 7.22 (17:00) 3.89 (17:50) 0 0 0 0 0
03-04-2020 12.6 (18:00) 2.1 (23:59) 7.4 9.17 (12:30) 6.39 (12:30) 0 0 0 0 0
02-04-2020 11.1 (15:40) 5.2 (00:00) 8.2 6.39 (16:10) 4.72 (16:10) 4.6 0.6 0 2.8 1.2
01-04-2020 8.3 (15:40) 5.5 (00:00) 6.9 12.78 (08:10) 8.33 (08:10) 2.4 0 0.2 1 1.2
31-03-2020 9 (13:20) 1.9 (00:00) 5.4 10 (20:10) 6.39 (16:40) 5.6 0 0 4.8 0.8
30-03-2020 5 (05:30) 1.1 (00:00) 3.1 10 (11:50) 7.22 (11:50) 1.8 0 0 1.4 0.4
29-03-2020 15.1 (17:50) 0.6 (00:00) 7.9 9.44 (10:00) 7.22 (10:00) 0 0 0 0 0
28-03-2020 14.2 (16:10) 2.1 (00:00) 8.1 6.39 (16:00) 3.61 (10:10) 0.2 0.2 0 0 0
27-03-2020 10.5 (15:30) -4.9 (-00:0) 2.8 7.78 (13:20) 5 (12:20) 2.4 0 1.4 0 1
26-03-2020 9.3 (13:30) -0.9 (-00:0) 4.2 11.11 (14:30) 6.67 (14:30) 4 0 0 2.6 1.4
25-03-2020 7.2 (15:20) 1.8 (00:00) 4.5 8.33 (09:30) 5.28 (09:50) 1.6 1.6 0 0 0
24-03-2020 11.4 (12:40) 4.5 (00:00) 7.9 8.33 (09:30) 5.28 (10:50) 0 0 0 0 0
23-03-2020 12.6 (16:30) 7.9 (00:00) 10.3 9.72 (16:40) 6.11 (09:30) 0.8 0 0.8 0 0
22-03-2020 13.3 (12:40) 0.4 (05:20) 6.9 8.06 (23:00) 5 (22:50) 0 0 0 0 0
21-03-2020 14.6 (14:40) -2.3 (-00:0) 6.2 7.5 (16:30) 3.89 (11:40) 0 0 0 0 0
20-03-2020 13.5 (16:00) 1.4 (00:00) 7.4 7.78 (11:50) 5 (13:50) 0 0 0 0 0
19-03-2020 15.7 (14:40) 0.3 (00:00) 8 8.06 (13:00) 5.28 (13:00) 0 0 0 0 0
18-03-2020 15.1 (15:10) 2.8 (00:00) 9 4.17 (13:20) 2.22 (16:10) 0 0 0 0 0
17-03-2020 12.7 (16:10) 6.7 (00:00) 9.7 12.5 (13:40) 6.67 (00:20) 0.2 0.2 0 0 0
16-03-2020 9.5 (01:10) 7.7 (00:00) 8.6 15 (09:40) 9.17 (09:40) 34.2 0 3.2 25.8 5.2
15-03-2020 12.8 (13:00) -0.2 (00:00) 6.3 11.67 (18:10) 7.78 (18:10) 0 0 0 0 0
14-03-2020 14.7 (16:10) 2.2 (00:00) 8.4 6.67 (11:00) 4.72 (11:00) 0 0 0 0 0
13-03-2020 15.3 (12:30) 3.7 (07:40) 9.5 6.39 (14:40) 4.72 (14:40) 0 0 0 0 0
12-03-2020 24.5 (15:30) 2.2 (00:00) 13.4 6.67 (22:20) 4.17 (22:20) 0 0 0 0 0
11-03-2020 19.1 (15:40) 1.1 (00:00) 10.1 7.22 (15:10) 5.56 (16:00) 0 0 0 0 0
10-03-2020 13.4 (17:40) 2.5 (00:00) 7.9 9.17 (00:10) 6.39 (00:10) 0 0 0 0 0
09-03-2020 13 (16:00) 5.3 (00:00) 9.2 16.67 (14:00) 11.67 (13:30) 0 0 0 0 0

Gráficas

Temp. máximas Temp. mínimas Temp. medias Precipitaciones Rachas de viento máximas Velocidades máximas media en intervalos de 10 minutos

Datos horarios

Fecha y hora oficial Temperatura (ºC) Velocidad del viento (km/h) Dirección del viento Racha (km/h) Dirección de racha Precipitación (mm) Presión (hPa) Tendencia (hPa) Humedad (%)
2020-04-07 23:00:00 8.5 4 Sudeste 12 Sudeste 0 -- -- 82
2020-04-07 22:00:00 9.1 6 Sudeste 10 Sudeste 0 -- -- 77
2020-04-07 21:00:00 9.2 7 Sudeste 11 Este 0 -- -- 74
2020-04-07 20:00:00 10.5 5 Sudeste 14 Sur 0 -- -- 70
2020-04-07 19:00:00 12.1 6 Sur 17 Sudeste 0 -- -- 63
2020-04-07 18:00:00 12.5 10 Sur 23 Sudeste 0 -- -- 58
2020-04-07 17:00:00 13.1 10 Sur 24 Sudeste 0 -- -- 59
2020-04-07 16:00:00 11.8 11 Sudeste 19 Sudeste 0 -- -- 70
2020-04-07 15:00:00 10.6 9 Sudeste 20 Sudeste 0 -- -- 75
2020-04-07 14:00:00 10.9 7 Sur 18 Sudoeste 0.2 -- -- 89
2020-04-07 13:00:00 10.5 8 Sudeste 16 Sudeste 1 -- -- 94
2020-04-07 12:00:00 9.9 9 Sudeste 17 Sudeste 1.2 -- -- 95
2020-04-07 11:00:00 9.9 10 Sudeste 18 Sudeste 0.2 -- -- 94
2020-04-07 10:00:00 10.1 9 Sur 21 Sudeste 0 -- -- 89
2020-04-07 09:00:00 9.7 11 Sudeste 19 Sudeste 0 -- -- 90
2020-04-07 08:00:00 8.7 10 Sudeste 15 Sudeste 0 -- -- 95
2020-04-07 07:00:00 9 9 Sudeste 15 Sudeste 0 -- -- 95
2020-04-07 06:00:00 8.5 8 Este 13 Sudeste 0 -- -- 96
2020-04-07 05:00:00 7.4 3 Sudeste 12 Sudeste 0 -- -- 95
2020-04-07 04:00:00 8.2 7 Sudeste 15 Sudeste 0 -- -- 93
2020-04-07 03:00:00 8.4 9 Sudeste 15 Sudeste 0 -- -- 94
2020-04-07 02:00:00 8.7 10 Sudeste 18 Este 0 -- -- 92
2020-04-07 01:00:00 8.3 10 Sudeste 20 Sudeste 0 -- -- 92
2020-04-07 00:00:00 8.2 10 Sudeste 18 Este 0 -- -- 92
2020-04-06 23:00:00 8.4 13 Sudeste 18 Sudeste 0 -- -- 91
2020-04-06 22:00:00 8.4 6 Sudeste 18 Sudeste 0 -- -- 87
2020-04-06 21:00:00 9.3 9 Sudeste 14 Sudeste 0 -- -- 75
2020-04-06 20:00:00 10.7 9 Sudeste 25 Sudeste 0 -- -- 65
2020-04-06 19:00:00 12.1 13 Sudeste 32 Sudeste 0 -- -- 62
2020-04-06 18:00:00 13.4 18 Sudeste 31 Sudeste 0 -- -- 57
2020-04-06 17:00:00 13.7 19 Sudeste 31 Sudeste 0 -- -- 55
2020-04-06 16:00:00 14.7 15 Sur 28 Sudoeste 0 -- -- 56
2020-04-06 15:00:00 14.8 15 Sur 34 Sur 0 -- -- 54
2020-04-06 14:00:00 14.4 15 Sudeste 33 Sudeste 0 -- -- 57
2020-04-06 13:00:00 13.8 14 Sudeste 27 Sudeste 0 -- -- 60
2020-04-06 12:00:00 13 14 Sur 32 Sur 0 -- -- 53
2020-04-06 11:00:00 11.9 15 Sudeste 24 Sur 0 -- -- 61
2020-04-06 10:00:00 10.4 14 Sudeste 25 Sudeste 0 -- -- 76
2020-04-06 09:00:00 7.9 14 Sudeste 20 Sudeste 0 -- -- 90
2020-04-06 08:00:00 6.2 13 Sudeste 16 Sudeste 0 -- -- 96
2020-04-06 07:00:00 5.8 13 Sudeste 17 Sudeste 0 -- -- 97
2020-04-06 06:00:00 5.8 8 Sudeste 15 Sudeste 0 -- -- 95
2020-04-06 05:00:00 6.4 12 Sudeste 20 Sudeste 0 -- -- 94
2020-04-06 04:00:00 6.2 13 Sudeste 19 Sudeste 0 -- -- 94
2020-04-06 03:00:00 6.6 12 Sudeste 18 Sudeste 0 -- -- 87
2020-04-06 02:00:00 7.4 14 Sudeste 21 Sudeste 0 -- -- 83
2020-04-06 01:00:00 7 13 Sudeste 18 Sudeste 0 -- -- 81
2020-04-06 00:00:00 5 9 Sudeste 13 Sudeste 0 -- -- 91
2020-04-05 23:00:00 6.5 6 Sudeste 15 Este 0 -- -- 86
2020-04-05 22:00:00 6.5 8 Sudeste 15 Este 0 -- -- 85
2020-04-05 21:00:00 8 10 Sudeste 20 Sudeste 0 -- -- 77
2020-04-05 20:00:00 9.5 15 Sudeste 25 Sur 0 -- -- 70
2020-04-05 19:00:00 11.6 14 Sur 23 Sudeste 0 -- -- 58
2020-04-05 18:00:00 12.5 13 Sudoeste 26 Sudoeste 0 -- -- 55
2020-04-05 17:00:00 13.9 11 Sudoeste 27 Sur 0 -- -- 53
2020-04-05 16:00:00 14.4 15 Sur 26 Sudoeste 0 -- -- 49
2020-04-05 15:00:00 14.7 12 Sudeste 27 Sudeste 0 -- -- 51
2020-04-05 14:00:00 14.2 13 Sudoeste 30 Sudeste 0 -- -- 54
2020-04-05 13:00:00 13.5 14 Sudeste 30 Sudeste 0 -- -- 40
2020-04-05 12:00:00 13 12 Sur 29 Sudeste 0 -- -- 53
2020-04-05 11:00:00 11.8 11 Sur 21 Sudeste 0 -- -- 62
2020-04-05 10:00:00 10.3 8 Sur 15 Sur 0 -- -- 71
2020-04-05 09:00:00 1.9 8 Sudeste 13 Sudeste 0 -- -- 100
2020-04-05 08:00:00 -2.2 6 Sudeste 9 Sudeste 0 -- -- 99
2020-04-05 07:00:00 -2.2 6 Sudeste 9 Este 0 -- -- 99
2020-04-05 06:00:00 -1.7 5 Sudeste 9 Sudeste 0 -- -- 99
2020-04-05 05:00:00 -1.5 6 Sudeste 10 Sudeste 0 -- -- 99
2020-04-05 04:00:00 -1.2 7 Sudeste 9 Sudeste 0 -- -- 99
2020-04-05 03:00:00 -0.4 6 Sudeste 9 Sudeste 0 -- -- 98
2020-04-05 02:00:00 1 3 Sudeste 13 Sudeste 0 -- -- 96
2020-04-05 01:00:00 1.7 11 Sudeste 13 Sudeste 0 -- -- 95
2020-04-05 00:00:00 2.6 5 Este 9 Sudeste 0 -- -- 94
2020-04-04 23:00:00 4.7 6 Sudeste 15 Este 0 -- -- 91
2020-04-04 22:00:00 7.9 10 Este 17 Sudeste 0 -- -- 89
2020-04-04 21:00:00 8.7 9 Sudeste 17 Sudeste 0 -- -- 86
2020-04-04 20:00:00 10.7 10 Sur 23 Sur 0 -- -- 70
2020-04-04 19:00:00 12.4 13 Sur 24 Sur 0 -- -- 54
2020-04-04 18:00:00 13.6 11 Sur 26 Sudoeste 0 -- -- 56
2020-04-04 17:00:00 14.1 13 Sur 26 Sudoeste 0 -- -- 54
2020-04-04 16:00:00 14.5 14 Sur 26 Sur 0 -- -- 54
2020-04-04 15:00:00 14.5 12 Sudoeste 24 Sur 0 -- -- 55
2020-04-04 14:00:00 14.2 11 Sudoeste 23 Sudoeste 0 -- -- 51
2020-04-04 13:00:00 13.8 13 Sur 25 Sudeste 0 -- -- 49
2020-04-04 12:00:00 13.6 11 Sur 19 Sur 0 -- -- 53
2020-04-04 11:00:00 12.5 11 Sudoeste 24 Sudoeste 0 -- -- 62
2020-04-04 10:00:00 10.7 5 Sudeste 9 Sudeste 0 -- -- 78
2020-04-04 09:00:00 2.9 5 Sudeste 9 Sudeste 0 -- -- 100
2020-04-04 08:00:00 -1 6 Sudeste 8 Sudeste 0 -- -- 100
2020-04-04 07:00:00 -1 5 Sudeste 9 Sudeste 0 -- -- 100
2020-04-04 06:00:00 -0.9 6 Sudeste 9 Sudeste 0 -- -- 100
2020-04-04 05:00:00 -0.6 5 Sudeste 9 Sudeste 0 -- -- 100
2020-04-04 04:00:00 -0.1 5 Sudeste 8 Sudeste 0 -- -- 100
2020-04-04 03:00:00 0.4 5 Sudeste 8 Sudeste 0 -- -- 99
2020-04-04 02:00:00 0.9 4 Sudeste 9 Sudeste 0 -- -- 99
2020-04-04 01:00:00 1.4 6 Sudeste 10 Sudeste 0 -- -- 99
2020-04-04 00:00:00 2.1 5 Sudeste 8 Este 0 -- -- 98
2020-04-03 23:00:00 2.9 4 Sudeste 8 Sudeste 0 -- -- 96
2020-04-03 22:00:00 4.8 4 Sudeste 8 Sudeste 0 -- -- 92
2020-04-03 21:00:00 7.5 5 Nordeste 14 Sudoeste 0 -- -- 85
2020-04-03 20:00:00 11.1 5 Sudoeste 19 Oeste 0 -- -- 74
2020-04-03 19:00:00 12.3 16 Noroeste 23 Oeste 0 -- -- 67
2020-04-03 18:00:00 12.6 15 Noroeste 26 Noroeste 0 -- -- 68
2020-04-03 17:00:00 12.1 18 Noroeste 27 Noroeste 0 -- -- 71
2020-04-03 16:00:00 11.3 19 Noroeste 28 Oeste 0 -- -- 76
2020-04-03 15:00:00 10.4 18 Oeste 31 Oeste 0 -- -- 76
2020-04-03 14:00:00 9.7 20 Noroeste 31 Noroeste 0 -- -- 79
2020-04-03 13:00:00 8.3 21 Noroeste 33 Noroeste 0 -- -- 83
2020-04-03 12:00:00 6.9 21 Noroeste 31 Oeste 0 -- -- 87
2020-04-03 11:00:00 5.4 17 Noroeste 27 Oeste 0 -- -- 92
2020-04-03 10:00:00 5.2 19 Noroeste 26 Noroeste 0 -- -- 92
2020-04-03 09:00:00 5 13 Noroeste 23 Noroeste 0 -- -- 98
2020-04-03 08:00:00 5.1 17 Noroeste 27 Noroeste 0 -- -- 100
2020-04-03 07:00:00 6.1 16 Noroeste 26 Oeste 0 -- -- 100
2020-04-03 06:00:00 6.9 10 Noroeste 19 Oeste 0 -- -- 100
2020-04-03 05:00:00 5.4 3 Noroeste 6 Noroeste 0 -- -- 100
2020-04-03 04:00:00 5.3 0 Calma 5 Sudeste 0 -- -- 100
2020-04-03 03:00:00 6.2 4 Nordeste 5 Nordeste 0 -- -- 100
2020-04-03 02:00:00 6.9 3 Nordeste 8 Este 0 -- -- 100
2020-04-03 01:00:00 7.5 5 Este 9 Este 0 -- -- 100
2020-04-03 00:00:00 7.8 4 Este 10 Sudeste 0.4 -- -- 99
2020-04-02 23:00:00 8.1 2 Este 11 Este 0.6 -- -- 98
2020-04-02 22:00:00 8.4 4 Este 9 Este 0.2 -- -- 98
2020-04-02 21:00:00 8.8 3 Este 8 Oeste 0 -- -- 96
2020-04-02 20:00:00 9.4 6 Noroeste 13 Noroeste 0 -- -- 94
2020-04-02 19:00:00 10 7 Noroeste 11 Oeste 0 -- -- 89
2020-04-02 18:00:00 9.5 3 Noroeste 18 Oeste 2.8 -- -- 94
2020-04-02 17:00:00 10 12 Noroeste 23 Oeste 0 -- -- 85
2020-04-02 16:00:00 10.7 13 Noroeste 22 Noroeste 0 -- -- 83
2020-04-02 15:00:00 10.2 12 Oeste 18 Noroeste 0 -- -- 84
2020-04-02 14:00:00 10.5 8 Noroeste 17 Noroeste 0 -- -- 78
2020-04-02 13:00:00 10.2 5 Norte 15 Noroeste 0 -- -- 79
2020-04-02 12:00:00 9.1 4 Oeste 16 Norte 0 -- -- 85
2020-04-02 11:00:00 7.9 5 Este 11 Este 0 -- -- 88
2020-04-02 10:00:00 6.7 2 Norte 9 Nordeste 0 -- -- 93
2020-04-02 09:00:00 6 3 Nordeste 9 Nordeste 0 -- -- 94
2020-04-02 08:00:00 5.3 2 Oeste 4 Oeste 0 -- -- 98
2020-04-02 07:00:00 5.2 2 Sudeste 6 Sudeste 0 -- -- 97
2020-04-02 06:00:00 5.3 3 Sudoeste 6 Sudeste 0 -- -- 96
2020-04-02 05:00:00 5.5 3 Sudoeste 10 Noroeste 0.6 -- -- 95
2020-04-02 04:00:00 5.6 0 Calma 5 Este 0 -- -- 96
2020-04-02 03:00:00 5.7 2 Norte 7 Sudeste 0 -- -- 96
2020-04-02 02:00:00 5.6 3 Oeste 8 Sudeste 0 -- -- 97
2020-04-02 01:00:00 5.7 7 Sudeste 14 Sudeste 0 -- -- 96
2020-04-02 00:00:00 5.5 6 Sudeste 15 Sudeste 0 -- -- 96
2020-04-01 23:00:00 6 9 Este 17 Sudeste 0 -- -- 95
2020-04-01 22:00:00 6.3 5 Este 14 Este 0 -- -- 95
2020-04-01 21:00:00 6.3 4 Noroeste 27 Sudeste 0 -- -- 95
2020-04-01 20:00:00 6.6 14 Este 26 Este 0 -- -- 96
2020-04-01 19:00:00 6.7 10 Sudeste 28 Este 1.2 -- -- 97
2020-04-01 18:00:00 7.1 17 Este 37 Este 0.4 -- -- 95
2020-04-01 17:00:00 7.6 19 Sudeste 34 Este 0.2 -- -- 93
2020-04-01 16:00:00 8 20 Este 35 Sudeste 0 -- -- 93
2020-04-01 15:00:00 7.4 18 Sudeste 33 Este 0.2 -- -- 97
2020-04-01 14:00:00 7.3 18 Sudeste 39 Este 0 -- -- 96
2020-04-01 13:00:00 7.3 21 Este 35 Este 0.2 -- -- 95
2020-04-01 12:00:00 7.3 16 Sudeste 35 Este 0 -- -- 96
2020-04-01 11:00:00 7.1 19 Sudeste 35 Sudeste 0 -- -- 97
2020-04-01 10:00:00 7.4 23 Sudeste 40 Este 0.2 -- -- 95
2020-04-01 09:00:00 7.6 19 Sudeste 46 Sudeste 0 -- -- 95
2020-04-01 08:00:00 7.4 21 Sudeste 39 Sudeste 0 -- -- 94
2020-04-01 07:00:00 7.4 22 Sudeste 35 Sudeste 0 -- -- 94
2020-04-01 06:00:00 7.3 22 Sudeste 42 Sudeste 0 -- -- 93
2020-04-01 05:00:00 7.2 19 Sudeste 35 Sudeste 0 -- -- 94
2020-04-01 04:00:00 7.4 18 Sudeste 28 Sudeste 0 -- -- 92
2020-04-01 03:00:00 7 13 Sudeste 25 Sudeste 0 -- -- 92
2020-04-01 02:00:00 7.1 14 Sudeste 29 Este 0 -- -- 91
2020-04-01 01:00:00 7 17 Sudeste 37 Sudeste 0 -- -- 90
2020-04-01 00:00:00 7.2 18 Sudeste 32 Sudeste 0 -- -- 88
2020-03-31 23:00:00 7.1 18 Sudeste 31 Sudeste 0.2 -- -- 91
2020-03-31 22:00:00 7.1 11 Sudeste 29 Sudeste 0 -- -- 91
2020-03-31 21:00:00 7.1 15 Sudeste 36 Sudeste 0 -- -- 90
2020-03-31 20:00:00 7.3 19 Sudeste 35 Sudeste 0.2 -- -- 91
2020-03-31 19:00:00 7.4 18 Sudeste 32 Sudeste 0.4 -- -- 94
2020-03-31 18:00:00 7.5 14 Sudeste 35 Sudeste 1.2 -- -- 94
2020-03-31 17:00:00 7.6 17 Sudeste 33 Este 1.4 -- -- 94
2020-03-31 16:00:00 8 18 Sudeste 32 Sudeste 1 -- -- 92
2020-03-31 15:00:00 8.2 14 Sudeste 35 Este 0.6 -- -- 92
2020-03-31 14:00:00 8.6 16 Sudeste 31 Sudeste 0.6 -- -- 91
2020-03-31 13:00:00 8.5 18 Este 30 Este 0 -- -- 87
2020-03-31 12:00:00 7.2 19 Sudeste 33 Sudeste 0 -- -- 90
2020-03-31 11:00:00 6.8 16 Sudeste 29 Sudeste 0 -- -- 92
2020-03-31 10:00:00 5.9 17 Sudeste 31 Sudeste 0 -- -- 93
2020-03-31 09:00:00 5.6 19 Sudeste 33 Sudeste 0 -- -- 93
2020-03-31 08:00:00 4.8 15 Sudeste 30 Sudeste 0 -- -- 92
2020-03-31 07:00:00 4.7 15 Sudeste 32 Sudeste 0 -- -- 92
2020-03-31 06:00:00 4.4 15 Sudeste 24 Sudeste 0 -- -- 94
2020-03-31 05:00:00 4.2 11 Sudeste 23 Sudeste 0 -- -- 96
2020-03-31 04:00:00 3.4 7 Sudeste 15 Sudeste 0 -- -- 99
2020-03-31 03:00:00 2.4 2 Sudeste 5 Sudeste 0 -- -- 95
2020-03-31 02:00:00 2.3 0 Calma 4 Noroeste 0 -- -- 96
2020-03-31 01:00:00 2 3 Noroeste 6 Noroeste 0 -- -- 95
2020-03-31 00:00:00 1.9 4 Noroeste 7 Noroeste 0 -- -- 95
2020-03-30 23:00:00 1.7 4 Noroeste 8 Noroeste 0 -- -- 95
2020-03-30 22:00:00 1.8 4 Noroeste 7 Noroeste 0 -- -- 96
2020-03-30 21:00:00 1.7 4 Noroeste 10 Noroeste 0 -- -- 96
2020-03-30 20:00:00 1.5 4 Noroeste 13 Noroeste 0 -- -- 97
2020-03-30 19:00:00 1.2 12 Noroeste 18 Oeste 0.4 -- -- 98
2020-03-30 18:00:00 1.2 13 Noroeste 22 Noroeste 0.4 -- -- 97
2020-03-30 17:00:00 1.2 15 Noroeste 26 Oeste 0.6 -- -- 95
2020-03-30 16:00:00 1.5 11 Noroeste 32 Oeste 0.4 -- -- 92
2020-03-30 15:00:00 3.9 21 Noroeste 33 Oeste 0 -- -- 69
2020-03-30 14:00:00 3.6 22 Noroeste 32 Oeste 0 -- -- 71
2020-03-30 13:00:00 3.6 23 Noroeste 33 Noroeste 0 -- -- 74
2020-03-30 12:00:00 4.1 21 Noroeste 36 Noroeste 0 -- -- 77
2020-03-30 11:00:00 4.2 20 Noroeste 27 Noroeste 0 -- -- 81
2020-03-30 10:00:00 3.7 15 Noroeste 20 Noroeste 0 -- -- 87
2020-03-30 09:00:00 4 13 Noroeste 20 Oeste 0 -- -- 85
2020-03-30 08:00:00 4.4 14 Noroeste 19 Noroeste 0 -- -- 87
2020-03-30 07:00:00 5 8 Noroeste 18 Oeste 0 -- -- 91
2020-03-30 06:00:00 4.9 10 Noroeste 18 Noroeste 0 -- -- 92
2020-03-30 05:00:00 4.5 6 Noroeste 13 Noroeste 0 -- -- 95
2020-03-30 04:00:00 4.7 8 Noroeste 17 Noroeste 0 -- -- 90
2020-03-30 03:00:00 4.3 7 Noroeste 12 Noroeste 0 -- -- 93
2020-03-30 02:00:00 1.4 3 Noroeste 8 Noroeste 0 -- -- 97
2020-03-30 01:00:00 2.5 3 Sudeste 6 Sudeste 0 -- -- 96
2020-03-30 00:00:00 3.8 5 Sudeste 9 Sudeste 0 -- -- 95
2020-03-29 23:00:00 5 5 Sudeste 10 Sudeste 0 -- -- 93
2020-03-29 22:00:00 5 5 Sudeste 9 Sudeste 0 -- -- 89
2020-03-29 21:00:00 7.1 6 Sudeste 7 Sudeste 0 -- -- 83
2020-03-29 20:00:00 12.7 0 Calma 19 Oeste 0 -- -- 62
2020-03-29 19:00:00 14.5 13 Noroeste 26 Oeste 0 -- -- 52
2020-03-29 18:00:00 15 15 Noroeste 26 Oeste 0 -- -- 48
2020-03-29 17:00:00 14.9 16 Oeste 30 Oeste 0 -- -- 52
2020-03-29 16:00:00 14.2 19 Oeste 32 Noroeste 0 -- -- 53
2020-03-29 15:00:00 13.4 21 Noroeste 33 Noroeste 0 -- -- 58
2020-03-29 14:00:00 12.4 19 Noroeste 28 Noroeste 0 -- -- 62
2020-03-29 13:00:00 11.3 19 Noroeste 29 Noroeste 0 -- -- 65
2020-03-29 12:00:00 10 20 Oeste 28 Noroeste 0 -- -- 71
2020-03-29 11:00:00 9 20 Noroeste 32 Oeste 0 -- -- 71
2020-03-29 10:00:00 7.9 26 Noroeste 34 Noroeste 0 -- -- 73
2020-03-29 09:00:00 5.8 13 Noroeste 17 Noroeste 0 -- -- 86
2020-03-29 08:00:00 0.8 3 Noroeste 5 Noroeste 0 -- -- 98
2020-03-29 07:00:00 1.3 4 Sudeste 6 Sudeste 0 -- -- 96
2020-03-29 06:00:00 3.3 4 Sudeste 7 Sudeste 0 -- -- 94
2020-03-29 05:00:00 4 5 Sudeste 6 Sudeste 0 -- -- 94
2020-03-29 03:00:00 4.6 4 Noroeste 11 Noroeste 0 -- -- 92
2020-03-29 01:00:00 3.6 5 Noroeste 9 Noroeste 0 -- -- 96
2020-03-29 00:00:00 2.4 0 Calma 5 Sudeste 0 -- -- 97
2020-03-28 23:00:00 2.4 4 Sudeste 5 Sudeste 0 -- -- 96
2020-03-28 22:00:00 3.3 4 Sudeste 5 Sudeste 0 -- -- 94
2020-03-28 21:00:00 4.7 3 Sudeste 8 Sudeste 0 -- -- 91
2020-03-28 20:00:00 7.3 0 Calma 6 Norte 0 -- -- 80
2020-03-28 19:00:00 11.1 3 Noroeste 13 Oeste 0 -- -- 66
2020-03-28 18:00:00 12.3 10 Noroeste 23 Oeste 0 -- -- 59
2020-03-28 17:00:00 13.8 11 Noroeste 22 Noroeste 0 -- -- 56
2020-03-28 16:00:00 13.8 11 Oeste 23 Oeste 0 -- -- 59
2020-03-28 15:00:00 13.5 9 Oeste 20 Noroeste 0 -- -- 57
2020-03-28 14:00:00 13.2 13 Noroeste 23 Noroeste 0 -- -- 60
2020-03-28 13:00:00 11.9 10 Oeste 21 Noroeste 0 -- -- 63
2020-03-28 12:00:00 10.6 13 Oeste 19 Noroeste 0 -- -- 67
2020-03-28 11:00:00 9 13 Oeste 17 Noroeste 0 -- -- 73
2020-03-28 10:00:00 7.6 12 Noroeste 17 Noroeste 0 -- -- 79
2020-03-28 09:00:00 6.5 7 Noroeste 10 Noroeste 0 -- -- 90
2020-03-28 08:00:00 4.6 0 Calma 4 Sudeste 0 -- -- 100
2020-03-28 07:00:00 3.6 0 Calma 4 Este 0 -- -- 100
2020-03-28 06:00:00 3.6 3 Este 5 Sudeste 0 -- -- 100
2020-03-28 05:00:00 3.5 0 Calma 4 Sudeste 0 -- -- 100
2020-03-28 04:00:00 3.5 2 Norte 5 Sudeste 0 -- -- 100
2020-03-28 03:00:00 3.1 3 Norte 6 Sudeste 0 -- -- 100
2020-03-28 02:00:00 3.5 3 Sudeste 5 Sudeste 0.2 -- -- 100
2020-03-28 01:00:00 3.5 5 Sudeste 6 Sudeste 0 -- -- 100
2020-03-28 00:00:00 3.4 2 Nordeste 5 Nordeste 0 -- -- 98
2020-03-27 23:00:00 4.4 0 Calma 4 Norte 0 -- -- 97
2020-03-27 22:00:00 4.9 3 Nordeste 5 Nordeste 0.4 -- -- 96
2020-03-27 21:00:00 5.2 0 Calma 4 Sudeste 0.4 -- -- 94
2020-03-27 20:00:00 5.9 4 Sudeste 17 Este 0.2 -- -- 88
2020-03-27 19:00:00 8.2 3 Norte 7 Noroeste 0 -- -- 73
2020-03-27 18:00:00 8.5 5 Noroeste 12 Oeste 0 -- -- 63
2020-03-27 17:00:00 9 9 Noroeste 16 Noroeste 0 -- -- 62
2020-03-27 16:00:00 9.6 9 Oeste 21 Oeste 0 -- -- 58
2020-03-27 15:00:00 9.5 12 Oeste 24 Oeste 0 -- -- 62
2020-03-27 14:00:00 8.2 15 Oeste 28 Oeste 0 -- -- 69
2020-03-27 13:00:00 8.3 16 Oeste 27 Noroeste 0 -- -- 70
2020-03-27 12:00:00 6.9 17 Noroeste 27 Noroeste 0 -- -- 74
2020-03-27 11:00:00 5.6 15 Noroeste 24 Oeste 0 -- -- 78
2020-03-27 10:00:00 4.4 10 Noroeste 17 Oeste 0.8 -- -- 86
2020-03-27 09:00:00 1.6 3 Noroeste 6 Sudeste 0.6 -- -- 95
2020-03-27 08:00:00 -2.6 5 Sudeste 7 Sudeste 0 -- -- 98
2020-03-27 07:00:00 -4.9 4 Sudeste 6 Sudeste 0 -- -- 97
2020-03-27 06:00:00 -4.5 4 Sudeste 8 Sudeste 0 -- -- 97
2020-03-27 05:00:00 -4 3 Sudeste 7 Sudeste 0 -- -- 98
2020-03-27 04:00:00 -3.7 5 Sudeste 6 Sudeste 0 -- -- 98
2020-03-27 03:00:00 -2.9 5 Sudeste 6 Sudeste 0 -- -- 99
2020-03-27 02:00:00 -2.1 5 Este 7 Sudeste 0 -- -- 100
2020-03-27 01:00:00 -1.6 3 Sudeste 7 Sudeste 0 -- -- 100
2020-03-27 00:00:00 -0.7 3 Este 5 Sudeste 0 -- -- 100
2020-03-26 23:00:00 -0.2 6 Sudeste 12 Sudeste 0 -- -- 100
2020-03-26 22:00:00 -0.2 6 Sudeste 9 Sudeste 0 -- -- 100
2020-03-26 21:00:00 0.5 2 Este 4 Nordeste 0.2 -- -- 100
2020-03-26 20:00:00 0.6 0 Calma 10 Noroeste 0.6 -- -- 100
2020-03-26 19:00:00 0.4 5 Noroeste 10 Noroeste 0.6 -- -- 99
2020-03-26 18:00:00 0.7 4 Norte 20 Oeste 2 -- -- 97
2020-03-26 17:00:00 3.4 18 Noroeste 24 Noroeste 0.4 -- -- 90
2020-03-26 16:00:00 5.4 8 Sudeste 26 Sudeste 0 -- -- 81
2020-03-26 15:00:00 5.1 11 Este 40 Este 0.2 -- -- 83
2020-03-26 14:00:00 8.4 16 Sudeste 30 Sudeste 0 -- -- 65
2020-03-26 13:00:00 8.2 17 Este 28 Este 0 -- -- 63
2020-03-26 12:00:00 7.3 10 Sudeste 20 Sudeste 0 -- -- 73
2020-03-26 11:00:00 6.1 7 Noroeste 17 Noroeste 0 -- -- 79
2020-03-26 10:00:00 4.3 6 Noroeste 24 Noroeste 0 -- -- 90
2020-03-26 09:00:00 3.7 15 Noroeste 27 Oeste 0 -- -- 93
2020-03-26 08:00:00 3.5 19 Noroeste 27 Noroeste 0 -- -- 94
2020-03-26 07:00:00 2.7 11 Noroeste 22 Noroeste 0 -- -- 98
2020-03-26 06:00:00 2.7 14 Noroeste 21 Noroeste 0 -- -- 98
2020-03-26 05:00:00 2.1 7 Noroeste 15 Noroeste 0 -- -- 95
2020-03-26 04:00:00 3.4 12 Noroeste 15 Noroeste 0 -- -- 93
2020-03-26 03:00:00 3.6 5 Noroeste 7 Noroeste 0 -- -- 92
2020-03-26 02:00:00 3.6 0 Calma 3 Norte 0 -- -- 93
2020-03-26 01:00:00 3.4 0 Calma 4 Noroeste 0 -- -- 93
2020-03-26 00:00:00 3.2 4 Norte 7 Norte 0 -- -- 92
2020-03-25 23:00:00 2.9 0 Calma 5 Sudeste 0 -- -- 92
2020-03-25 22:00:00 2.5 3 Este 6 Sudeste 0 -- -- 92
2020-03-25 21:00:00 2.6 3 Nordeste 10 Sudeste 0 -- -- 88
2020-03-25 20:00:00 4.1 8 Sudeste 16 Sur 0 -- -- 80
2020-03-25 19:00:00 4.9 8 Sudoeste 15 Sudoeste 0 -- -- 74
2020-03-25 18:00:00 6.1 5 Oeste 16 Noroeste 0 -- -- 69
2020-03-25 17:00:00 6.3 10 Oeste 16 Sudeste 0 -- -- 64
2020-03-25 16:00:00 6.5 8 Sur 15 Sudoeste 0 -- -- 66
2020-03-25 15:00:00 6.8 6 Sudoeste 18 Sudoeste 0 -- -- 65
2020-03-25 14:00:00 5.3 4 Sur 13 Sudeste 0 -- -- 68
2020-03-25 13:00:00 4.9 8 Sudeste 14 Sudeste 0 -- -- 73
2020-03-25 12:00:00 3.7 9 Sudeste 22 Sudeste 0 -- -- 85
2020-03-25 11:00:00 3.1 10 Sudeste 21 Sudeste 0 -- -- 88
2020-03-25 10:00:00 2.5 13 Sudeste 30 Sudeste 0 -- -- 90
2020-03-25 09:00:00 2.7 12 Sudeste 21 Este 0 -- -- 85
2020-03-25 08:00:00 2.5 4 Sudeste 9 Nordeste 0 -- -- 92
2020-03-25 07:00:00 2.4 3 Nordeste 19 Este 0 -- -- 93
2020-03-25 06:00:00 2.9 7 Sudeste 14 Sudeste 0.2 -- -- 95
2020-03-25 05:00:00 2 3 Sudeste 11 Sudeste 0.8 -- -- 96
2020-03-25 04:00:00 2.4 6 Sudeste 17 Sudeste 0.6 -- -- 91
2020-03-25 03:00:00 3.5 12 Sudeste 27 Sudeste 0 -- -- 83
2020-03-25 02:00:00 4.1 13 Sudeste 26 Sudeste 0 -- -- 81
2020-03-25 01:00:00 4.3 17 Sudeste 29 Sudeste 0 -- -- 83
2020-03-25 00:00:00 4.5 17 Sudeste 25 Sudeste 0 -- -- 84
2020-03-24 23:00:00 4.8 16 Sudeste 27 Sudeste 0 -- -- 86
2020-03-24 22:00:00 4.8 13 Sudeste 23 Sudeste 0 -- -- 91
2020-03-24 21:00:00 5.1 13 Sudeste 23 Sudeste 0 -- -- 94
2020-03-24 20:00:00 5.9 15 Sudeste 28 Sudeste 0 -- -- 92
2020-03-24 19:00:00 6.6 17 Sudeste 28 Sudeste 0 -- -- 88
2020-03-24 18:00:00 7.5 18 Sudeste 28 Sudeste 0 -- -- 81
2020-03-24 17:00:00 8.1 18 Sudeste 27 Sudeste 0 -- -- 79
2020-03-24 16:00:00 9.4 15 Sudeste 26 Sudeste 0 -- -- 76
2020-03-24 15:00:00 10.6 13 Sur 27 Sudeste 0 -- -- 70
2020-03-24 14:00:00 11 14 Sudeste 23 Sudeste 0 -- -- 69
2020-03-24 13:00:00 10.8 12 Sudeste 21 Sudeste 0 -- -- 71
2020-03-24 12:00:00 10.4 11 Sudeste 27 Sudeste 0 -- -- 72
2020-03-24 11:00:00 9.5 19 Sudeste 30 Sudeste 0 -- -- 76
2020-03-24 10:00:00 8.6 14 Este 30 Sudeste 0 -- -- 81
2020-03-24 09:00:00 7.3 17 Sudeste 26 Sudeste 0 -- -- 89
2020-03-24 08:00:00 6.5 12 Sudeste 18 Sudeste 0 -- -- 93
2020-03-24 07:00:00 6.2 11 Sudeste 19 Sudeste 0 -- -- 94
2020-03-24 06:00:00 5.9 11 Sudeste 22 Sudeste 0 -- -- 92
2020-03-24 05:00:00 6.6 14 Sudeste 27 Sudeste 0 -- -- 90
2020-03-24 04:00:00 6.7 16 Sudeste 27 Sudeste 0 -- -- 91
2020-03-24 03:00:00 7.3 14 Sudeste 22 Sudeste 0 -- -- 94
2020-03-24 02:00:00 7.4 15 Sudeste 25 Sudeste 0 -- -- 93
2020-03-24 01:00:00 7.8 14 Sudeste 27 Sudeste 0 -- -- 97
2020-03-24 00:00:00 7.9 15 Sudeste 30 Sudeste 0 -- -- 97
2020-03-23 23:00:00 8.2 15 Sudeste 27 Sudeste 0 -- -- 95
2020-03-23 22:00:00 8.6 14 Sudeste 23 Sudeste 0 -- -- 95
2020-03-23 21:00:00 9 12 Sudeste 26 Sudeste 0 -- -- 93
2020-03-23 20:00:00 8.8 13 Sudeste 21 Sudeste 0 -- -- 92
2020-03-23 19:00:00 9.3 14 Sudeste 30 Este 0 -- -- 89
2020-03-23 18:00:00 10.3 18 Sudeste 33 Sudeste 0 -- -- 83
2020-03-23 17:00:00 11 16 Sudeste 35 Este 0 -- -- 85
2020-03-23 16:00:00 11.4 20 Sudeste 34 Sudeste 0 -- -- 83
2020-03-23 15:00:00 10.8 13 Sudeste 27 Este 0 -- -- 83
2020-03-23 14:00:00 11.3 19 Este 35 Este 0 -- -- 81
2020-03-23 13:00:00 10.7 17 Sudeste 30 Este 0 -- -- 84
2020-03-23 12:00:00 10.4 13 Sudeste 28 Este 0 -- -- 92
2020-03-23 11:00:00 9.6 15 Sudeste 25 Sudeste 0.6 -- -- 93
2020-03-23 10:00:00 9.3 13 Sudeste 32 Sudeste 0.2 -- -- 93
2020-03-23 09:00:00 9.3 18 Sudeste 29 Este 0 -- -- 90
2020-03-23 08:00:00 8.5 14 Sudeste 28 Sudeste 0 -- -- 94
2020-03-23 07:00:00 8.4 8 Sudeste 15 Sudeste 0 -- -- 95
2020-03-23 06:00:00 8.5 7 Este 19 Este 0 -- -- 94
2020-03-23 05:00:00 8.5 14 Sudeste 21 Este 0 -- -- 93
2020-03-23 04:00:00 8.4 6 Sudeste 19 Sudeste 0 -- -- 94
2020-03-23 03:00:00 8.9 14 Sudeste 23 Sudeste 0 -- -- 91
2020-03-23 02:00:00 9 11 Este 22 Este 0 -- -- 91
2020-03-23 01:00:00 8.6 10 Sudeste 17 Sudeste 0 -- -- 94
2020-03-23 00:00:00 8.5 3 Sudeste 22 Sudeste 0 -- -- 91
2020-03-22 23:00:00 9.1 15 Sudeste 29 Sudeste 0 -- -- 90
2020-03-22 22:00:00 8.8 17 Sudeste 25 Sudeste 0 -- -- 92
2020-03-22 21:00:00 8.5 10 Sudeste 22 Sudeste 0 -- -- 92
2020-03-22 20:00:00 8.7 10 Sudeste 25 Sudeste 0 -- -- 90
2020-03-22 19:00:00 10 15 Sudeste 25 Sudeste 0 -- -- 83
2020-03-22 18:00:00 10.6 9 Sudeste 19 Sudeste 0 -- -- 86
2020-03-22 17:00:00 10.6 15 Sudeste 26 Sudeste 0 -- -- 81
2020-03-22 16:00:00 11.9 10 Sur 28 Sudeste 0 -- -- 73
2020-03-22 15:00:00 12.7 14 Sudeste 23 Sudeste 0 -- -- 62
2020-03-22 14:00:00 12.3 17 Sudeste 26 Sudeste 0 -- -- 66
2020-03-22 13:00:00 13 17 Sudeste 27 Sudeste 0 -- -- 59
2020-03-22 12:00:00 11.8 13 Este 25 Este 0 -- -- 72
2020-03-22 11:00:00 11 14 Sudeste 25 Sudeste 0 -- -- 77
2020-03-22 10:00:00 9.7 14 Sudeste 24 Sudeste 0 -- -- 93
2020-03-22 09:00:00 7.4 5 Sudeste 9 Sudeste 0 -- -- 100
2020-03-22 08:00:00 2.9 5 Sudeste 8 Sudeste 0 -- -- 100
2020-03-22 07:00:00 1.7 6 Sudeste 12 Sudeste 0 -- -- 100
2020-03-22 06:00:00 0.7 7 Sudeste 10 Sudeste 0 -- -- 100
2020-03-22 05:00:00 0.7 4 Sudeste 9 Sudeste 0 -- -- 100
2020-03-22 04:00:00 1.4 6 Sudeste 9 Sudeste 0 -- -- 99
2020-03-22 03:00:00 1.7 4 Este 10 Sudeste 0 -- -- 100
2020-03-22 02:00:00 2 5 Sudeste 9 Sudeste 0 -- -- 100
2020-03-22 01:00:00 2 7 Sudeste 12 Sudeste 0 -- -- 98
2020-03-22 00:00:00 2.6 10 Sudeste 13 Sudeste 0 -- -- 99
2020-03-21 23:00:00 2.4 8 Sudeste 10 Sudeste 0 -- -- 96
2020-03-21 22:00:00 4.4 7 Sudeste 15 Este 0 -- -- 92
2020-03-21 21:00:00 7.3 10 Este 15 Sudeste 0 -- -- 88
2020-03-21 20:00:00 8.1 7 Sudeste 18 Sudeste 0 -- -- 85
2020-03-21 19:00:00 9.8 10 Sudeste 18 Sudeste 0 -- -- 77
2020-03-21 18:00:00 12 12 Sudoeste 23 Sudeste 0 -- -- 68
2020-03-21 17:00:00 13.4 10 Sudoeste 27 Sudoeste 0 -- -- 61
2020-03-21 16:00:00 14.2 12 Sudeste 25 Sudeste 0 -- -- 46
2020-03-21 15:00:00 14.3 12 Sudeste 25 Sudeste 0 -- -- 44
2020-03-21 14:00:00 13.4 12 Este 20 Sudeste 0 -- -- 52
2020-03-21 13:00:00 13.1 12 Sudeste 23 Sudeste 0 -- -- 50
2020-03-21 12:00:00 12.3 12 Sudeste 22 Sudeste 0 -- -- 53
2020-03-21 11:00:00 11.5 13 Sudeste 23 Sudeste 0 -- -- 54
2020-03-21 10:00:00 10.3 11 Este 17 Este 0 -- -- 63
2020-03-21 09:00:00 5.3 4 Sudeste 8 Sudeste 0 -- -- 93
2020-03-21 08:00:00 -0.6 5 Sudeste 7 Sudeste 0 -- -- 100
2020-03-21 07:00:00 -2.3 6 Sudeste 9 Sudeste 0 -- -- 99
2020-03-21 06:00:00 -2.1 5 Sudeste 8 Sudeste 0 -- -- 99
2020-03-21 05:00:00 -1.8 5 Sudeste 7 Sudeste 0 -- -- 99
2020-03-21 04:00:00 -1.3 4 Sudeste 8 Sudeste 0 -- -- 99
2020-03-21 03:00:00 -0.9 8 Sudeste 9 Sudeste 0 -- -- 99
2020-03-21 02:00:00 -0.6 6 Sudeste 7 Sudeste 0 -- -- 98
2020-03-21 01:00:00 0.6 4 Este 8 Sudeste 0 -- -- 99
2020-03-21 00:00:00 1.4 4 Sudeste 9 Sudeste 0 -- -- 98
2020-03-20 23:00:00 2.3 7 Sudeste 11 Sudeste 0 -- -- 97
2020-03-20 22:00:00 2.9 8 Sudeste 10 Sudeste 0 -- -- 95
2020-03-20 21:00:00 4.9 6 Sudeste 13 Sudeste 0 -- -- 91
2020-03-20 20:00:00 7.5 10 Sudeste 16 Sudeste 0 -- -- 84
2020-03-20 19:00:00 9.8 11 Sudeste 23 Sudeste 0 -- -- 73
2020-03-20 18:00:00 11.4 13 Sudeste 26 Sudeste 0 -- -- 67
2020-03-20 17:00:00 12.5 11 Sudeste 24 Sudeste 0 -- -- 57
2020-03-20 16:00:00 13.5 14 Sudeste 25 Sudeste 0 -- -- 54
2020-03-20 15:00:00 13.4 12 Este 26 Sudeste 0 -- -- 50
2020-03-20 14:00:00 13 13 Sudeste 27 Este 0 -- -- 49
2020-03-20 13:00:00 13.1 14 Sudeste 27 Sudeste 0 -- -- 50
2020-03-20 12:00:00 12.3 13 Sudeste 28 Sudeste 0 -- -- 54
2020-03-20 11:00:00 11.2 15 Sudeste 25 Sudeste 0 -- -- 59
2020-03-20 10:00:00 10.4 15 Sudeste 22 Este 0 -- -- 70
2020-03-20 09:00:00 7.8 6 Sudeste 12 Sudeste 0 -- -- 100
2020-03-20 08:00:00 3.5 5 Sudeste 11 Este 0 -- -- 100
2020-03-20 07:00:00 4 7 Este 12 Sudeste 0 -- -- 100
2020-03-20 06:00:00 4.6 7 Sudeste 14 Sudeste 0 -- -- 100
2020-03-20 05:00:00 4.8 8 Sudeste 17 Sudeste 0 -- -- 99
2020-03-20 04:00:00 5 13 Sudeste 21 Sudeste 0 -- -- 99
2020-03-20 03:00:00 2.9 4 Sudeste 10 Sudeste 0 -- -- 100
2020-03-20 02:00:00 2.2 4 Nordeste 8 Este 0 -- -- 99
2020-03-20 01:00:00 2 4 Este 8 Nordeste 0 -- -- 97
2020-03-20 00:00:00 3.1 4 Nordeste 11 Sudeste 0 -- -- 91
2020-03-19 23:00:00 6.1 9 Sudeste 13 Sudeste 0 -- -- 84
2020-03-19 22:00:00 5.4 0 Calma 9 Este 0 -- -- 87
2020-03-19 21:00:00 6.9 2 Este 10 Este 0 -- -- 85
2020-03-19 20:00:00 8.5 5 Sudeste 20 Sudeste 0 -- -- 82
2020-03-19 19:00:00 10.2 13 Sudeste 22 Sudeste 0 -- -- 69
2020-03-19 18:00:00 11.8 16 Sudeste 24 Sudeste 0 -- -- 65
2020-03-19 17:00:00 12.5 12 Sur 24 Sudeste 0 -- -- 78
2020-03-19 16:00:00 13.6 14 Sudeste 26 Sudeste 0 -- -- 74
2020-03-19 15:00:00 14.4 14 Sudoeste 28 Sudeste 0 -- -- 72
2020-03-19 14:00:00 15.4 15 Sudeste 27 Sudeste 0 -- -- 48
2020-03-19 13:00:00 15 19 Sudeste 29 Sudeste 0 -- -- 38
2020-03-19 12:00:00 14.4 15 Sudeste 24 Sudeste 0 -- -- 52
2020-03-19 11:00:00 12.8 16 Sudeste 27 Sudeste 0 -- -- 64
2020-03-19 10:00:00 10.9 13 Sudeste 18 Sudeste 0 -- -- 100
2020-03-19 09:00:00 7.8 4 Sudeste 8 Sudeste 0 -- -- 100
2020-03-19 08:00:00 4.3 6 Sudeste 9 Sudeste 0 -- -- 100
2020-03-19 07:00:00 0.8 7 Sudeste 9 Sudeste 0 -- -- 100
2020-03-19 06:00:00 0.4 6 Sudeste 9 Sudeste 0 -- -- 100
2020-03-19 05:00:00 0.9 5 Sudeste 7 Sudeste 0 -- -- 100
2020-03-19 04:00:00 1.4 6 Sudeste 7 Sudeste 0 -- -- 100
2020-03-19 03:00:00 1.9 5 Sudeste 7 Sudeste 0 -- -- 100
2020-03-19 02:00:00 2.1 5 Sudeste 8 Sudeste 0 -- -- 100
2020-03-19 01:00:00 2.5 5 Sudeste 7 Sudeste 0 -- -- 100
2020-03-19 00:00:00 2.8 5 Sudeste 7 Sudeste 0 -- -- 99
2020-03-18 23:00:00 3.3 5 Sudeste 8 Sudeste 0 -- -- 98
2020-03-18 22:00:00 4.7 4 Este 6 Sudeste 0 -- -- 97
2020-03-18 21:00:00 6.2 4 Sudeste 7 Sudeste 0 -- -- 95
2020-03-18 20:00:00 8.7 4 Sudeste 9 Sudeste 0 -- -- 92
2020-03-18 19:00:00 11.6 6 Sudeste 10 Este 0 -- -- 85
2020-03-18 18:00:00 13.4 5 Norte 11 Norte 0 -- -- 77
2020-03-18 17:00:00 14.8 6 Sudeste 12 Sudeste 0 -- -- 57
2020-03-18 16:00:00 15.1 6 Sudeste 14 Sudeste 0 -- -- 57
2020-03-18 15:00:00 14.8 4 Sudeste 13 Sudeste 0 -- -- 53
2020-03-18 14:00:00 14.5 7 Este 15 Sudeste 0 -- -- 61
2020-03-18 13:00:00 14.4 6 Sudeste 13 Sur 0 -- -- 65
2020-03-18 12:00:00 13.3 6 Sur 10 Sudeste 0 -- -- 67
2020-03-18 11:00:00 12.3 2 Sudeste 4 Sudeste 0 -- -- 65
2020-03-18 10:00:00 9.4 3 Sudeste 5 Sudeste 0 -- -- 92
2020-03-18 09:00:00 6.4 3 Sudeste 7 Sudeste 0 -- -- 100
2020-03-18 08:00:00 4.1 5 Sudeste 13 Sudeste 0 -- -- 100
2020-03-18 07:00:00 3.3 6 Sudeste 9 Sudeste 0 -- -- 100
2020-03-18 06:00:00 3.2 4 Sudeste 8 Sudeste 0 -- -- 100
2020-03-18 05:00:00 3.4 6 Sudeste 9 Sudeste 0 -- -- 100
2020-03-18 04:00:00 3.5 6 Sudeste 8 Sudeste 0 -- -- 99
2020-03-18 03:00:00 4 4 Sudeste 6 Sudeste 0 -- -- 98
2020-03-18 02:00:00 5.4 4 Sudeste 7 Sudeste 0 -- -- 98
2020-03-18 01:00:00 6.4 2 Este 4 Sudeste 0 -- -- 97
2020-03-18 00:00:00 6.7 3 Sudeste 7 Sudeste 0 -- -- 97
2020-03-17 23:00:00 7 0 Calma 8 Sudeste 0 -- -- 95
2020-03-17 22:00:00 7 6 Sudeste 9 Sudeste 0 -- -- 96
2020-03-17 21:00:00 7.5 4 Este 5 Este 0 -- -- 94
2020-03-17 20:00:00 8.8 3 Este 10 Sur 0 -- -- 91
2020-03-17 19:00:00 10.6 5 Sudeste 12 Sudeste 0 -- -- 85
2020-03-17 18:00:00 11.6 9 Sudeste 24 Sudeste 0 -- -- 81
2020-03-17 17:00:00 12.3 14 Sudeste 24 Sudeste 0 -- -- 79
2020-03-17 16:00:00 12.5 16 Sudeste 29 Este 0 -- -- 79
2020-03-17 15:00:00 12.1 10 Este 36 Este 0 -- -- 80
2020-03-17 14:00:00 11.7 20 Sudeste 45 Sudeste 0 -- -- 83
2020-03-17 13:00:00 11.9 21 Sudeste 35 Sudeste 0 -- -- 81
2020-03-17 12:00:00 11.3 16 Sudeste 27 Sudeste 0 -- -- 83
2020-03-17 11:00:00 10.8 15 Sudeste 23 Sudeste 0 -- -- 85
2020-03-17 10:00:00 10.1 12 Sudeste 22 Sudeste 0 -- -- 88
2020-03-17 09:00:00 9.3 15 Sudeste 30 Sudeste 0 -- -- 88
2020-03-17 08:00:00 9.2 17 Sudeste 33 Sudeste 0 -- -- 91
2020-03-17 07:00:00 8.8 17 Sudeste 33 Sudeste 0 -- -- 90
2020-03-17 06:00:00 8.9 18 Sudeste 39 Sudeste 0 -- -- 87
2020-03-17 05:00:00 8.9 19 Sudeste 31 Sudeste 0 -- -- 87
2020-03-17 04:00:00 8.3 18 Sudeste 31 Sudeste 0 -- -- 90
2020-03-17 03:00:00 8.3 15 Sudeste 25 Este 0 -- -- 95
2020-03-17 02:00:00 8.8 15 Sudeste 36 Este 0 -- -- 96
2020-03-17 01:00:00 9.1 18 Sudeste 41 Sudeste 0.2 -- -- 99
2020-03-17 00:00:00 9.1 19 Sudeste 36 Sudeste 0.2 -- -- 99
2020-03-16 23:00:00 9.1 19 Sudeste 42 Sudeste 0 -- -- 99
2020-03-16 22:00:00 8.9 21 Sudeste 40 Este 0 -- -- 100
2020-03-16 21:00:00 8.8 16 Sudeste 26 Este 0.2 -- -- 99
2020-03-16 20:00:00 8.5 10 Este 25 Este 0.4 -- -- 98
2020-03-16 19:00:00 8.7 12 Este 25 Este 4.4 -- -- 98
2020-03-16 18:00:00 9.1 13 Sudeste 34 Sudeste 6.6 -- -- 98
2020-03-16 17:00:00 9.2 20 Sudeste 35 Sudeste 3.4 -- -- 98
2020-03-16 16:00:00 9 17 Sudeste 34 Sudeste 5.2 -- -- 99
2020-03-16 15:00:00 8.9 18 Este 31 Sudeste 6.8 -- -- 99
2020-03-16 14:00:00 8.8 18 Sudeste 36 Sudeste 1.8 -- -- 99
2020-03-16 13:00:00 8.7 22 Sudeste 42 Sudeste 2 -- -- 97
2020-03-16 12:00:00 8.8 22 Sudeste 45 Sudeste 2.6 -- -- 97
2020-03-16 11:00:00 8.6 24 Sudeste 43 Este 0.2 -- -- 93
2020-03-16 10:00:00 8.3 26 Sudeste 54 Sudeste 0.2 -- -- 92
2020-03-16 09:00:00 7.9 21 Sudeste 46 Este 0.2 -- -- 94
2020-03-16 08:00:00 7.8 26 Sudeste 41 Sudeste 0 -- -- 93
2020-03-16 07:00:00 8.2 18 Sudeste 35 Sudeste 0 -- -- 93
2020-03-16 06:00:00 8.9 20 Sudeste 30 Sudeste 0 -- -- 92
2020-03-16 05:00:00 8.8 14 Sudeste 39 Sudeste 0 -- -- 92
2020-03-16 04:00:00 9.1 20 Sudeste 37 Sudeste 0 -- -- 91
2020-03-16 03:00:00 9.3 19 Sudeste 33 Este 0 -- -- 92
2020-03-16 02:00:00 9.5 19 Sudeste 35 Sudeste 0 -- -- 92
2020-03-16 01:00:00 9.4 22 Sudeste 46 Sudeste 0 -- -- 90
2020-03-16 00:00:00 8.9 27 Sudeste 42 Sudeste 0 -- -- 88
2020-03-15 23:00:00 8.7 26 Sudeste 42 Sudeste 0 -- -- 94
2020-03-15 22:00:00 9 24 Sudeste 39 Sudeste 0 -- -- 93
2020-03-15 21:00:00 9.3 23 Sudeste 37 Sudeste 0 -- -- 88
2020-03-15 20:00:00 9.3 23 Sudeste 37 Sudeste 0 -- -- 88
2020-03-15 19:00:00 9.4 22 Sudeste 42 Sudeste 0 -- -- 83
2020-03-15 18:00:00 10.3 27 Sudeste 42 Sudeste 0 -- -- 80
2020-03-15 17:00:00 11.3 20 Sudeste 37 Sudeste 0 -- -- 78
2020-03-15 16:00:00 11.6 18 Sur 35 Sur 0 -- -- 77
2020-03-15 15:00:00 12.4 15 Sur 31 Sur 0 -- -- 76
2020-03-15 14:00:00 11.6 16 Sur 32 Sur 0 -- -- 83
2020-03-15 13:00:00 12.8 20 Sur 35 Sudeste 0 -- -- 75
2020-03-15 12:00:00 12.3 15 Sur 31 Sudeste 0 -- -- 75
2020-03-15 11:00:00 11.8 14 Sur 28 Sur 0 -- -- 77
2020-03-15 10:00:00 10.9 16 Sur 26 Sudoeste 0 -- -- 78
2020-03-15 09:00:00 9.3 11 Sudeste 19 Sudeste 0 -- -- 83
2020-03-15 08:00:00 1.8 7 Sudeste 11 Sudeste 0 -- -- 100
2020-03-15 07:00:00 -0.2 9 Sudeste 12 Sudeste 0 -- -- 100
2020-03-15 06:00:00 0.3 8 Sudeste 11 Sudeste 0 -- -- 100
2020-03-15 05:00:00 0.5 6 Sudeste 11 Sudeste 0 -- -- 100
2020-03-15 04:00:00 1.2 6 Sudeste 11 Sudeste 0 -- -- 100
2020-03-15 03:00:00 1.3 8 Sudeste 10 Sudeste 0 -- -- 100
2020-03-15 02:00:00 1.3 6 Sudeste 8 Sudeste 0 -- -- 99
2020-03-15 01:00:00 1.7 4 Sudeste 8 Sudeste 0 -- -- 98
2020-03-15 00:00:00 2.2 3 Sudeste 8 Sudeste 0 -- -- 97
2020-03-14 23:00:00 2.7 6 Sudeste 10 Sudeste 0 -- -- 96
2020-03-14 22:00:00 3.4 6 Sudeste 10 Sudeste 0 -- -- 95
2020-03-14 21:00:00 4.6 5 Sudeste 8 Sudeste 0 -- -- 92
2020-03-14 20:00:00 7 6 Sudeste 8 Sudeste 0 -- -- 86
2020-03-14 19:00:00 10.5 3 Sudeste 12 Oeste 0 -- -- 76
2020-03-14 18:00:00 14 8 Oeste 16 Oeste 0 -- -- 64
2020-03-14 17:00:00 14.4 9 Noroeste 21 Oeste 0 -- -- 64
2020-03-14 16:00:00 14.6 12 Noroeste 22 Oeste 0 -- -- 64
2020-03-14 15:00:00 14 13 Oeste 21 Oeste 0 -- -- 66
2020-03-14 14:00:00 13.5 10 Noroeste 22 Noroeste 0 -- -- 69
2020-03-14 13:00:00 11.5 14 Noroeste 24 Oeste 0 -- -- 73
2020-03-14 12:00:00 11.4 13 Oeste 22 Oeste 0 -- -- 73
2020-03-14 11:00:00 9.8 17 Noroeste 24 Oeste 0 -- -- 77
2020-03-14 10:00:00 8.8 13 Oeste 22 Noroeste 0 -- -- 81
2020-03-14 09:00:00 7.8 16 Noroeste 23 Noroeste 0 -- -- 86
2020-03-14 08:00:00 6 3 Sudeste 11 Noroeste 0 -- -- 96
2020-03-14 07:00:00 6.5 5 Noroeste 17 Noroeste 0 -- -- 94
2020-03-14 06:00:00 7.9 11 Noroeste 15 Oeste 0 -- -- 94
2020-03-14 05:00:00 8.3 7 Noroeste 17 Oeste 0 -- -- 98
2020-03-14 04:00:00 7.2 0 Calma 8 Noroeste 0 -- -- 100
2020-03-14 03:00:00 5.3 4 Noroeste 9 Sudeste 0 -- -- 100
2020-03-14 02:00:00 3.1 2 Sudeste 8 Sudeste 0 -- -- 99
2020-03-14 01:00:00 3.8 4 Sudeste 8 Sudeste 0 -- -- 98
2020-03-14 00:00:00 4.2 6 Sudeste 8 Sudeste 0 -- -- 97
2020-03-13 23:00:00 4.4 5 Sudeste 6 Sudeste 0 -- -- 95
2020-03-13 22:00:00 6 3 Sudeste 6 Sudeste 0 -- -- 94
2020-03-13 21:00:00 7.8 4 Sudeste 5 Sudeste 0 -- -- 90
2020-03-13 20:00:00 10.3 0 Calma 6 Norte 0 -- -- 86
2020-03-13 19:00:00 12.7 4 Noroeste 10 Oeste 0 -- -- 79
2020-03-13 18:00:00 13.6 8 Noroeste 13 Noroeste 0 -- -- 75
2020-03-13 17:00:00 14 10 Noroeste 18 Noroeste 0 -- -- 74
2020-03-13 16:00:00 14 12 Noroeste 22 Oeste 0 -- -- 74
2020-03-13 15:00:00 14.2 15 Noroeste 23 Oeste 0 -- -- 74
2020-03-13 14:00:00 14.6 13 Noroeste 21 Noroeste 0 -- -- 73
2020-03-13 13:00:00 14.5 11 Oeste 20 Oeste 0 -- -- 71
2020-03-13 12:00:00 15 8 Oeste 19 Oeste 0 -- -- 57
2020-03-13 11:00:00 12.9 7 Sudoeste 18 Oeste 0 -- -- 64
2020-03-13 10:00:00 13.3 5 Sur 11 Sur 0 -- -- 66
2020-03-13 09:00:00 7.9 4 Sudeste 8 Sudeste 0 -- -- 94
2020-03-13 08:00:00 4.1 4 Sudeste 7 Sudeste 0 -- -- 98
2020-03-13 07:00:00 4 5 Sudeste 9 Sudeste 0 -- -- 97
2020-03-13 06:00:00 4.9 5 Sudeste 8 Sudeste 0 -- -- 97
2020-03-13 05:00:00 5.1 5 Sudeste 15 Sudeste 0 -- -- 94
2020-03-13 04:00:00 5.1 10 Sudeste 13 Sudeste 0 -- -- 95
2020-03-13 03:00:00 7.2 2 Este 10 Este 0 -- -- 89
2020-03-13 02:00:00 9.4 5 Este 15 Sudeste 0 -- -- 84
2020-03-13 01:00:00 9.6 10 Sudeste 17 Sudeste 0 -- -- 81
2020-03-13 00:00:00 10.8 6 Sudeste 13 Este 0 -- -- 73
2020-03-12 23:00:00 13.8 8 Este 24 Sudeste 0 -- -- 61
2020-03-12 22:00:00 14 12 Sudeste 23 Sudeste 0 -- -- 60
2020-03-12 21:00:00 12.2 10 Sudeste 15 Sudeste 0 -- -- 72
2020-03-12 20:00:00 13 8 Sudeste 12 Sudeste 0 -- -- 72
2020-03-12 19:00:00 16.1 7 Sudeste 17 Sudeste 0 -- -- 63
2020-03-12 18:00:00 20.5 13 Sudeste 19 Sudeste 0 -- -- 52
2020-03-12 17:00:00 22.7 9 Sur 18 Sur 0 -- -- 42
2020-03-12 16:00:00 23.8 10 Sur 21 Sudeste 0 -- -- 40
2020-03-12 15:00:00 24.4 9 Sur 17 Sur 0 -- -- 34
2020-03-12 14:00:00 23.6 10 Sur 19 Sur 0 -- -- 40
2020-03-12 13:00:00 24.2 7 Sur 14 Sur 0 -- -- 36
2020-03-12 12:00:00 23.8 9 Sur 16 Sudeste 0 -- -- 34
2020-03-12 11:00:00 22.9 5 Sudeste 12 Sudeste 0 -- -- 41
2020-03-12 10:00:00 19.2 8 Sudeste 10 Sudeste 0 -- -- 54
2020-03-12 09:00:00 11.1 4 Sudeste 11 Sudeste 0 -- -- 82
2020-03-12 08:00:00 3.6 8 Sudeste 10 Sudeste 0 -- -- 99
2020-03-12 07:00:00 2.2 6 Sudeste 10 Sudeste 0 -- -- 98
2020-03-12 06:00:00 2.4 7 Sudeste 10 Sudeste 0 -- -- 98
2020-03-12 05:00:00 2.7 8 Sudeste 9 Sudeste 0 -- -- 97
2020-03-12 04:00:00 2.8 6 Sudeste 8 Sudeste 0 -- -- 97
2020-03-12 03:00:00 3.7 6 Sudeste 10 Sudeste 0 -- -- 94
2020-03-12 02:00:00 4 9 Sudeste 13 Sudeste 0 -- -- 96
2020-03-12 01:00:00 4.9 7 Sudeste 9 Sudeste 0 -- -- 94
2020-03-12 00:00:00 5.4 7 Sudeste 8 Sudeste 0 -- -- 92
2020-03-11 23:00:00 5.4 5 Sudeste 8 Sudeste 0 -- -- 92
2020-03-11 22:00:00 5.7 5 Sudeste 8 Sudeste 0 -- -- 89
2020-03-11 21:00:00 6.3 6 Sudeste 9 Sudeste 0 -- -- 86
2020-03-11 20:00:00 8.5 4 Sudeste 7 Sudeste 0 -- -- 80
2020-03-11 19:00:00 12.5 5 Sudeste 8 Noroeste 0 -- -- 69
2020-03-11 18:00:00 18.2 7 Oeste 20 Noroeste 0 -- -- 51
2020-03-11 17:00:00 18.8 16 Noroeste 26 Noroeste 0 -- -- 46
2020-03-11 16:00:00 18.6 20 Noroeste 26 Noroeste 0 -- -- 45
2020-03-11 15:00:00 18.9 18 Noroeste 24 Noroeste 0 -- -- 36
2020-03-11 14:00:00 18.4 14 Noroeste 22 Noroeste 0 -- -- 46
2020-03-11 13:00:00 17.7 13 Noroeste 26 Noroeste 0 -- -- 47
2020-03-11 12:00:00 17 13 Noroeste 20 Oeste 0 -- -- 45
2020-03-11 11:00:00 15.8 10 Noroeste 17 Noroeste 0 -- -- 44
2020-03-11 10:00:00 13.6 10 Noroeste 15 Noroeste 0 -- -- 49
2020-03-11 09:00:00 9.6 8 Noroeste 13 Noroeste 0 -- -- 65
2020-03-11 08:00:00 2.6 5 Sudeste 9 Sudeste 0 -- -- 89
2020-03-11 07:00:00 3.2 7 Sudeste 17 Noroeste 0 -- -- 84
2020-03-11 06:00:00 6 9 Noroeste 18 Norte 0 -- -- 73
2020-03-11 05:00:00 4.2 7 Norte 14 Noroeste 0 -- -- 85
2020-03-11 04:00:00 1.6 4 Nordeste 12 Norte 0 -- -- 96
2020-03-11 03:00:00 1.4 3 Este 7 Sudeste 0 -- -- 96
2020-03-11 02:00:00 2.3 5 Sudeste 8 Sudeste 0 -- -- 95
2020-03-11 01:00:00 3.1 5 Sudeste 7 Sudeste 0 -- -- 92
2020-03-11 00:00:00 3.5 6 Sudeste 9 Sudeste 0 -- -- 92
2020-03-10 23:00:00 4.3 5 Sudeste 8 Sudeste 0 -- -- 89
2020-03-10 22:00:00 4.9 6 Sudeste 12 Sudeste 0 -- -- 88
2020-03-10 21:00:00 5.7 3 Sudeste 7 Sudeste 0 -- -- 86
2020-03-10 20:00:00 7.3 4 Sudeste 6 Sudeste 0 -- -- 81
2020-03-10 19:00:00 10.7 0 Calma 17 Noroeste 0 -- -- 70
2020-03-10 18:00:00 12.9 12 Noroeste 24 Noroeste 0 -- -- 60
2020-03-10 17:00:00 12.9 15 Noroeste 23 Noroeste 0 -- -- 58
2020-03-10 16:00:00 12.3 13 Noroeste 26 Oeste 0 -- -- 61
2020-03-10 15:00:00 11.4 14 Noroeste 21 Noroeste 0 -- -- 61
2020-03-10 14:00:00 9.7 14 Noroeste 26 Noroeste 0 -- -- 67
2020-03-10 13:00:00 9.3 20 Noroeste 31 Oeste 0 -- -- 68
2020-03-10 12:00:00 8.1 8 Noroeste 20 Noroeste 0 -- -- 75
2020-03-10 11:00:00 7.2 14 Noroeste 29 Noroeste 0 -- -- 76
2020-03-10 10:00:00 8.4 17 Noroeste 27 Noroeste 0 -- -- 69
2020-03-10 09:00:00 6.5 20 Noroeste 30 Noroeste 0 -- -- 78
2020-03-10 08:00:00 4.2 6 Norte 13 Norte 0 -- -- 89
2020-03-10 07:00:00 4 12 Noroeste 26 Noroeste 0 -- -- 88
2020-03-10 06:00:00 3.5 12 Noroeste 20 Oeste 0 -- -- 91
2020-03-10 05:00:00 3.6 3 Oeste 19 Noroeste 0 -- -- 84
2020-03-10 04:00:00 4.2 14 Noroeste 25 Noroeste 0 -- -- 79
2020-03-10 03:00:00 4.3 16 Noroeste 25 Noroeste 0 -- -- 78
2020-03-10 02:00:00 4.8 15 Noroeste 22 Oeste 0 -- -- 76
2020-03-10 01:00:00 5.1 15 Noroeste 33 Noroeste 0 -- -- 74
2020-03-10 00:00:00 5.6 25 Noroeste 37 Oeste 0 -- -- 71
2020-03-09 23:00:00 6 24 Noroeste 39 Noroeste 0 -- -- 73
2020-03-09 22:00:00 6.9 25 Oeste 36 Oeste 0 -- -- 68
2020-03-09 21:00:00 7.4 23 Noroeste 36 Oeste 0 -- -- 59
2020-03-09 20:00:00 8.4 25 Noroeste 37 Noroeste 0 -- -- 59
2020-03-09 19:00:00 9.8 24 Noroeste 54 Oeste 0 -- -- 53
2020-03-09 18:00:00 11.6 40 Noroeste 54 Noroeste 0 -- -- 49
2020-03-09 17:00:00 12.7 30 Oeste 50 Oeste 0 -- -- 46
2020-03-09 16:00:00 13 30 Noroeste 53 Oeste 0 -- -- 49
2020-03-09 15:00:00 12.6 33 Oeste 56 Noroeste 0 -- -- 53
2020-03-09 14:00:00 12 41 Noroeste 60 Noroeste 0 -- -- 57
2020-03-09 13:00:00 10.9 34 Oeste 51 Oeste 0 -- -- 60
2020-03-09 12:00:00 9.7 30 Noroeste 49 Noroeste 0 -- -- 63
2020-03-09 11:00:00 8.9 31 Noroeste 50 Oeste 0 -- -- 66
2020-03-09 10:00:00 7.7 32 Noroeste 47 Noroeste 0 -- -- 70
2020-03-09 09:00:00 6.6 30 Noroeste 46 Oeste 0 -- -- 76
2020-03-09 08:00:00 5.6 22 Noroeste 39 Noroeste 0 -- -- 82
2020-03-09 07:00:00 5.5 22 Noroeste 36 Noroeste 0 -- -- 84
2020-03-09 06:00:00 6.1 18 Noroeste 45 Noroeste 0 -- -- 84
2020-03-09 05:00:00 7.1 27 Noroeste 41 Noroeste 0 -- -- 79
2020-03-09 04:00:00 6.8 19 Noroeste 38 Noroeste 0 -- -- 85
2020-03-09 03:00:00 7.7 15 Noroeste 33 Noroeste 0 -- -- 79
2020-03-09 02:00:00 8.3 13 Noroeste 21 Noroeste 0 -- -- 74
2020-03-09 01:00:00 7.3 4 Noroeste 15 Noroeste 0 -- -- 74
2020-03-09 00:00:00 6.8 5 Noroeste 14 Noroeste 0 -- -- 74